sensor_id;sensor_type;location;lat;lon;timestamp;temperature;humidity
66871;DHT22;53780;44.998;9.926;2023-05-10T00:00:40;15.58;86.69
66871;DHT22;53780;44.998;9.926;2023-05-10T00:03:44;15.53;86.76
66871;DHT22;53780;44.998;9.926;2023-05-10T00:06:48;15.49;86.94
66871;DHT22;53780;44.998;9.926;2023-05-10T00:09:51;15.47;86.77
66871;DHT22;53780;44.998;9.926;2023-05-10T00:12:55;15.43;87.23
66871;DHT22;53780;44.998;9.926;2023-05-10T00:15:59;15.33;87.57
66871;DHT22;53780;44.998;9.926;2023-05-10T00:19:03;15.29;87.79
66871;DHT22;53780;44.998;9.926;2023-05-10T00:22:07;15.29;88.00
66871;DHT22;53780;44.998;9.926;2023-05-10T00:25:11;15.39;88.08
66871;DHT22;53780;44.998;9.926;2023-05-10T00:28:14;15.40;88.35
66871;DHT22;53780;44.998;9.926;2023-05-10T00:31:18;15.37;88.04
66871;DHT22;53780;44.998;9.926;2023-05-10T00:34:22;15.37;88.37
66871;DHT22;53780;44.998;9.926;2023-05-10T00:37:26;15.34;88.25
66871;DHT22;53780;44.998;9.926;2023-05-10T00:40:29;15.41;87.99
66871;DHT22;53780;44.998;9.926;2023-05-10T00:43:38;15.34;87.94
66871;DHT22;53780;44.998;9.926;2023-05-10T00:46:42;15.32;88.42
66871;DHT22;53780;44.998;9.926;2023-05-10T00:49:46;15.27;88.64
66871;DHT22;53780;44.998;9.926;2023-05-10T00:52:50;15.26;88.92
66871;DHT22;53780;44.998;9.926;2023-05-10T00:55:54;15.34;88.88
66871;DHT22;53780;44.998;9.926;2023-05-10T00:58:59;15.23;88.71
66871;DHT22;53780;44.998;9.926;2023-05-10T01:02:03;15.18;89.11
66871;DHT22;53780;44.998;9.926;2023-05-10T01:05:07;15.14;89.42
66871;DHT22;53780;44.998;9.926;2023-05-10T01:08:10;15.09;89.47
66871;DHT22;53780;44.998;9.926;2023-05-10T01:11:14;15.05;89.35
66871;DHT22;53780;44.998;9.926;2023-05-10T01:14:19;15.02;89.02
66871;DHT22;53780;44.998;9.926;2023-05-10T01:17:24;14.95;88.86
66871;DHT22;53780;44.998;9.926;2023-05-10T01:20:35;14.91;88.69
66871;DHT22;53780;44.998;9.926;2023-05-10T01:23:56;14.84;88.94
66871;DHT22;53780;44.998;9.926;2023-05-10T01:34:13;14.82;89.67
66871;DHT22;53780;44.998;9.926;2023-05-10T01:37:25;14.81;89.69
66871;DHT22;53780;44.998;9.926;2023-05-10T01:41:01;14.74;89.69
66871;DHT22;53780;44.998;9.926;2023-05-10T01:44:22;14.76;89.44
66871;DHT22;53780;44.998;9.926;2023-05-10T01:47:38;14.86;89.26
66871;DHT22;53780;44.998;9.926;2023-05-10T01:50:45;14.81;88.88
66871;DHT22;53780;44.998;9.926;2023-05-10T01:53:51;14.76;89.25
66871;DHT22;53780;44.998;9.926;2023-05-10T01:57:01;14.74;89.40
66871;DHT22;53780;44.998;9.926;2023-05-10T02:00:08;14.72;89.06
66871;DHT22;53780;44.998;9.926;2023-05-10T02:03:22;14.71;89.20
66871;DHT22;53780;44.998;9.926;2023-05-10T02:06:27;14.61;88.71
66871;DHT22;53780;44.998;9.926;2023-05-10T02:09:32;14.64;88.50
66871;DHT22;53780;44.998;9.926;2023-05-10T02:12:42;14.76;88.26
66871;DHT22;53780;44.998;9.926;2023-05-10T02:15:48;14.69;88.22
66871;DHT22;53780;44.998;9.926;2023-05-10T02:18:53;14.64;88.56
66871;DHT22;53780;44.998;9.926;2023-05-10T02:21:59;14.60;89.13
66871;DHT22;53780;44.998;9.926;2023-05-10T02:25:05;14.64;89.28
66871;DHT22;53780;44.998;9.926;2023-05-10T02:28:11;14.69;89.68
66871;DHT22;53780;44.998;9.926;2023-05-10T02:31:17;14.64;89.50
66871;DHT22;53780;44.998;9.926;2023-05-10T02:34:22;14.68;90.01
66871;DHT22;53780;44.998;9.926;2023-05-10T02:37:26;14.68;89.97
66871;DHT22;53780;44.998;9.926;2023-05-10T02:40:32;14.61;89.28
66871;DHT22;53780;44.998;9.926;2023-05-10T02:43:37;14.60;89.31
66871;DHT22;53780;44.998;9.926;2023-05-10T02:46:44;14.68;88.97
66871;DHT22;53780;44.998;9.926;2023-05-10T02:49:49;14.61;88.18
66871;DHT22;53780;44.998;9.926;2023-05-10T02:52:56;14.54;88.60
66871;DHT22;53780;44.998;9.926;2023-05-10T02:56:05;14.51;88.87
66871;DHT22;53780;44.998;9.926;2023-05-10T02:59:14;14.57;88.59
66871;DHT22;53780;44.998;9.926;2023-05-10T03:02:18;14.49;88.69
66871;DHT22;53780;44.998;9.926;2023-05-10T03:05:22;14.51;89.09
66871;DHT22;53780;44.998;9.926;2023-05-10T03:08:26;14.45;89.13
66871;DHT22;53780;44.998;9.926;2023-05-10T03:18:01;14.30;89.75
66871;DHT22;53780;44.998;9.926;2023-05-10T03:21:11;14.40;89.93
66871;DHT22;53780;44.998;9.926;2023-05-10T03:24:20;14.38;90.04
66871;DHT22;53780;44.998;9.926;2023-05-10T03:27:26;14.37;90.49
66871;DHT22;53780;44.998;9.926;2023-05-10T03:30:33;14.48;90.15
66871;DHT22;53780;44.998;9.926;2023-05-10T03:33:48;14.45;90.08
66871;DHT22;53780;44.998;9.926;2023-05-10T03:36:55;14.42;90.33
66871;DHT22;53780;44.998;9.926;2023-05-10T03:40:02;14.52;90.54
66871;DHT22;53780;44.998;9.926;2023-05-10T03:43:09;14.42;90.70
66871;DHT22;53780;44.998;9.926;2023-05-10T03:46:12;14.51;91.13
66871;DHT22;53780;44.998;9.926;2023-05-10T03:49:16;14.54;91.10
66871;DHT22;53780;44.998;9.926;2023-05-10T03:52:20;14.51;91.34
66871;DHT22;53780;44.998;9.926;2023-05-10T03:55:25;14.36;91.29
66871;DHT22;53780;44.998;9.926;2023-05-10T03:58:29;14.38;91.59
66871;DHT22;53780;44.998;9.926;2023-05-10T04:01:34;14.44;91.67
66871;DHT22;53780;44.998;9.926;2023-05-10T04:04:38;14.40;91.63
66871;DHT22;53780;44.998;9.926;2023-05-10T04:07:42;14.31;91.45
66871;DHT22;53780;44.998;9.926;2023-05-10T04:10:47;14.24;91.30
66871;DHT22;53780;44.998;9.926;2023-05-10T04:13:51;14.16;91.00
66871;DHT22;53780;44.998;9.926;2023-05-10T04:16:55;14.09;91.04
66871;DHT22;53780;44.998;9.926;2023-05-10T04:19:59;14.08;91.20
66871;DHT22;53780;44.998;9.926;2023-05-10T04:23:03;13.96;91.64
66871;DHT22;53780;44.998;9.926;2023-05-10T04:26:06;14.03;91.44
66871;DHT22;53780;44.998;9.926;2023-05-10T04:29:10;14.08;91.42
66871;DHT22;53780;44.998;9.926;2023-05-10T04:32:14;14.00;91.56
66871;DHT22;53780;44.998;9.926;2023-05-10T04:35:19;13.76;91.62
66871;DHT22;53780;44.998;9.926;2023-05-10T04:38:23;13.69;91.70
66871;DHT22;53780;44.998;9.926;2023-05-10T04:41:28;13.54;91.24
66871;DHT22;53780;44.998;9.926;2023-05-10T04:44:32;13.43;90.92
66871;DHT22;53780;44.998;9.926;2023-05-10T04:47:36;13.37;91.13
66871;DHT22;53780;44.998;9.926;2023-05-10T04:50:40;13.43;91.24
66871;DHT22;53780;44.998;9.926;2023-05-10T04:53:44;13.40;91.23
66871;DHT22;53780;44.998;9.926;2023-05-10T04:56:48;13.41;91.58
66871;DHT22;53780;44.998;9.926;2023-05-10T04:59:51;13.28;91.67
66871;DHT22;53780;44.998;9.926;2023-05-10T05:02:55;13.23;91.85
66871;DHT22;53780;44.998;9.926;2023-05-10T05:05:59;13.21;91.72
66871;DHT22;53780;44.998;9.926;2023-05-10T05:09:02;13.17;91.30
66871;DHT22;53780;44.998;9.926;2023-05-10T05:12:06;13.04;91.24
66871;DHT22;53780;44.998;9.926;2023-05-10T05:15:10;12.92;90.78
66871;DHT22;53780;44.998;9.926;2023-05-10T05:18:14;12.99;90.96
66871;DHT22;53780;44.998;9.926;2023-05-10T05:21:19;12.99;90.79
66871;DHT22;53780;44.998;9.926;2023-05-10T05:24:23;12.86;90.80
66871;DHT22;53780;44.998;9.926;2023-05-10T05:27:27;12.90;91.11
66871;DHT22;53780;44.998;9.926;2023-05-10T05:30:31;12.82;90.86
66871;DHT22;53780;44.998;9.926;2023-05-10T05:33:35;12.78;90.68
66871;DHT22;53780;44.998;9.926;2023-05-10T05:36:39;12.75;90.84
66871;DHT22;53780;44.998;9.926;2023-05-10T05:39:43;12.76;91.01
66871;DHT22;53780;44.998;9.926;2023-05-10T05:42:47;12.76;90.90
66871;DHT22;53780;44.998;9.926;2023-05-10T05:45:54;12.79;91.12
66871;DHT22;53780;44.998;9.926;2023-05-10T05:48:59;12.73;90.88
66871;DHT22;53780;44.998;9.926;2023-05-10T05:52:03;12.79;91.04
66871;DHT22;53780;44.998;9.926;2023-05-10T05:55:07;12.78;91.07
66871;DHT22;53780;44.998;9.926;2023-05-10T05:58:11;12.68;90.92
66871;DHT22;53780;44.998;9.926;2023-05-10T06:01:15;12.68;91.14
66871;DHT22;53780;44.998;9.926;2023-05-10T06:04:19;12.68;91.63
66871;DHT22;53780;44.998;9.926;2023-05-10T06:07:23;12.66;91.53
66871;DHT22;53780;44.998;9.926;2023-05-10T06:10:26;12.71;91.68
66871;DHT22;53780;44.998;9.926;2023-05-10T06:13:31;12.69;91.17
66871;DHT22;53780;44.998;9.926;2023-05-10T06:16:35;12.55;90.69
66871;DHT22;53780;44.998;9.926;2023-05-10T06:19:40;12.63;91.23
66871;DHT22;53780;44.998;9.926;2023-05-10T06:22:44;12.68;91.58
66871;DHT22;53780;44.998;9.926;2023-05-10T06:25:47;12.71;91.13
66871;DHT22;53780;44.998;9.926;2023-05-10T06:28:51;12.72;91.08
66871;DHT22;53780;44.998;9.926;2023-05-10T06:31:55;12.63;90.23
66871;DHT22;53780;44.998;9.926;2023-05-10T06:34:59;12.58;90.74
66871;DHT22;53780;44.998;9.926;2023-05-10T06:38:03;12.52;90.32
66871;DHT22;53780;44.998;9.926;2023-05-10T06:41:07;12.51;90.73
66871;DHT22;53780;44.998;9.926;2023-05-10T06:44:11;12.53;90.71
66871;DHT22;53780;44.998;9.926;2023-05-10T06:47:17;12.44;90.63
66871;DHT22;53780;44.998;9.926;2023-05-10T06:50:20;12.46;90.80
66871;DHT22;53780;44.998;9.926;2023-05-10T06:53:24;12.49;91.06
66871;DHT22;53780;44.998;9.926;2023-05-10T06:56:28;12.42;90.41
66871;DHT22;53780;44.998;9.926;2023-05-10T06:59:32;12.37;90.63
66871;DHT22;53780;44.998;9.926;2023-05-10T07:02:36;12.34;90.76
66871;DHT22;53780;44.998;9.926;2023-05-10T07:05:39;12.35;91.22
66871;DHT22;53780;44.998;9.926;2023-05-10T07:08:43;12.37;91.15
66871;DHT22;53780;44.998;9.926;2023-05-10T07:11:47;12.42;91.23
66871;DHT22;53780;44.998;9.926;2023-05-10T07:14:50;12.38;91.11
66871;DHT22;53780;44.998;9.926;2023-05-10T07:17:54;12.41;91.32
66871;DHT22;53780;44.998;9.926;2023-05-10T07:20:58;12.51;91.60
66871;DHT22;53780;44.998;9.926;2023-05-10T07:24:01;12.51;91.56
66871;DHT22;53780;44.998;9.926;2023-05-10T07:27:06;12.56;91.52
66871;DHT22;53780;44.998;9.926;2023-05-10T07:30:10;12.55;91.26
66871;DHT22;53780;44.998;9.926;2023-05-10T07:33:14;12.53;91.25
66871;DHT22;53780;44.998;9.926;2023-05-10T07:36:19;12.52;91.12
66871;DHT22;53780;44.998;9.926;2023-05-10T07:39:23;12.56;91.26
66871;DHT22;53780;44.998;9.926;2023-05-10T07:42:27;12.59;91.23
66871;DHT22;53780;44.998;9.926;2023-05-10T07:45:31;12.69;91.63
66871;DHT22;53780;44.998;9.926;2023-05-10T07:48:36;12.76;91.55
66871;DHT22;53780;44.998;9.926;2023-05-10T07:51:41;12.83;91.52
66871;DHT22;53780;44.998;9.926;2023-05-10T07:54:49;12.85;91.65
66871;DHT22;53780;44.998;9.926;2023-05-10T07:57:52;12.78;91.10
66871;DHT22;53780;44.998;9.926;2023-05-10T08:00:56;12.79;91.42
66871;DHT22;53780;44.998;9.926;2023-05-10T08:04:01;12.80;91.41
66871;DHT22;53780;44.998;9.926;2023-05-10T08:07:05;12.79;91.06
66871;DHT22;53780;44.998;9.926;2023-05-10T08:10:10;12.72;90.53
66871;DHT22;53780;44.998;9.926;2023-05-10T08:13:14;12.78;90.86
66871;DHT22;53780;44.998;9.926;2023-05-10T08:16:18;12.82;90.61
66871;DHT22;53780;44.998;9.926;2023-05-10T08:19:22;12.83;90.51
66871;DHT22;53780;44.998;9.926;2023-05-10T08:22:27;12.80;89.90
66871;DHT22;53780;44.998;9.926;2023-05-10T08:25:31;12.80;89.83
66871;DHT22;53780;44.998;9.926;2023-05-10T08:28:35;12.69;89.05
66871;DHT22;53780;44.998;9.926;2023-05-10T08:31:39;12.71;89.88
66871;DHT22;53780;44.998;9.926;2023-05-10T08:34:43;12.72;90.13
66871;DHT22;53780;44.998;9.926;2023-05-10T08:37:47;12.73;89.63
66871;DHT22;53780;44.998;9.926;2023-05-10T08:40:53;12.82;89.92
66871;DHT22;53780;44.998;9.926;2023-05-10T08:44:03;12.89;89.90
66871;DHT22;53780;44.998;9.926;2023-05-10T08:47:08;12.80;89.59
66871;DHT22;53780;44.998;9.926;2023-05-10T08:50:14;12.78;89.45
66871;DHT22;53780;44.998;9.926;2023-05-10T08:53:19;12.82;89.31
66871;DHT22;53780;44.998;9.926;2023-05-10T08:56:24;12.88;89.22
66871;DHT22;53780;44.998;9.926;2023-05-10T08:59:28;12.86;89.59
66871;DHT22;53780;44.998;9.926;2023-05-10T09:02:32;12.76;89.47
66871;DHT22;53780;44.998;9.926;2023-05-10T09:05:37;12.89;89.78
66871;DHT22;53780;44.998;9.926;2023-05-10T09:08:41;12.89;89.55
66871;DHT22;53780;44.998;9.926;2023-05-10T09:11:46;12.82;89.12
66871;DHT22;53780;44.998;9.926;2023-05-10T09:14:51;12.92;89.95
66871;DHT22;53780;44.998;9.926;2023-05-10T09:17:56;12.83;89.40
66871;DHT22;53780;44.998;9.926;2023-05-10T09:21:01;12.85;90.27
66871;DHT22;53780;44.998;9.926;2023-05-10T09:24:07;12.79;90.12
66871;DHT22;53780;44.998;9.926;2023-05-10T09:27:11;12.92;90.75
66871;DHT22;53780;44.998;9.926;2023-05-10T09:30:28;12.86;90.43
66871;DHT22;53780;44.998;9.926;2023-05-10T09:33:43;12.88;89.94
66871;DHT22;53780;44.998;9.926;2023-05-10T09:36:55;12.88;89.71
66871;DHT22;53780;44.998;9.926;2023-05-10T09:39:59;12.95;90.44
66871;DHT22;53780;44.998;9.926;2023-05-10T09:43:06;12.69;90.01
66871;DHT22;53780;44.998;9.926;2023-05-10T09:46:10;12.82;90.09
66871;DHT22;53780;44.998;9.926;2023-05-10T09:49:14;12.72;90.75
66871;DHT22;53780;44.998;9.926;2023-05-10T09:52:18;12.56;90.55
66871;DHT22;53780;44.998;9.926;2023-05-10T09:55:24;12.53;90.52
66871;DHT22;53780;44.998;9.926;2023-05-10T09:58:28;12.65;91.57
66871;DHT22;53780;44.998;9.926;2023-05-10T10:01:33;12.76;91.31
66871;DHT22;53780;44.998;9.926;2023-05-10T10:04:41;12.72;91.20
66871;DHT22;53780;44.998;9.926;2023-05-10T10:07:45;12.73;91.36
66871;DHT22;53780;44.998;9.926;2023-05-10T10:10:49;12.76;91.48
66871;DHT22;53780;44.998;9.926;2023-05-10T10:13:54;12.92;92.00
66871;DHT22;53780;44.998;9.926;2023-05-10T10:17:00;12.96;91.75
66871;DHT22;53780;44.998;9.926;2023-05-10T10:20:04;12.89;91.67
66871;DHT22;53780;44.998;9.926;2023-05-10T10:23:08;12.99;91.46
66871;DHT22;53780;44.998;9.926;2023-05-10T10:26:12;13.11;90.72
66871;DHT22;53780;44.998;9.926;2023-05-10T10:29:27;13.09;90.85
66871;DHT22;53780;44.998;9.926;2023-05-10T10:36:12;13.18;91.02
66871;DHT22;53780;44.998;9.926;2023-05-10T10:39:16;13.26;90.74
66871;DHT22;53780;44.998;9.926;2023-05-10T10:42:46;13.21;90.18
66871;DHT22;53780;44.998;9.926;2023-05-10T10:46:20;13.26;90.39
66871;DHT22;53780;44.998;9.926;2023-05-10T10:49:25;13.40;90.61
66871;DHT22;53780;44.998;9.926;2023-05-10T10:55:46;13.44;89.82
66871;DHT22;53780;44.998;9.926;2023-05-10T10:58:51;13.43;90.15
66871;DHT22;53780;44.998;9.926;2023-05-10T11:01:57;13.44;89.86
66871;DHT22;53780;44.998;9.926;2023-05-10T11:08:30;13.37;89.15
66871;DHT22;53780;44.998;9.926;2023-05-10T11:11:35;13.53;90.72
66871;DHT22;53780;44.998;9.926;2023-05-10T11:14:39;13.51;90.79
66871;DHT22;53780;44.998;9.926;2023-05-10T11:17:43;13.62;90.02
66871;DHT22;53780;44.998;9.926;2023-05-10T11:20:58;13.76;89.20
66871;DHT22;53780;44.998;9.926;2023-05-10T11:24:15;13.96;89.32
66871;DHT22;53780;44.998;9.926;2023-05-10T11:27:20;13.93;89.11
66871;DHT22;53780;44.998;9.926;2023-05-10T11:30:24;14.08;88.38
66871;DHT22;53780;44.998;9.926;2023-05-10T11:33:28;14.10;87.69
66871;DHT22;53780;44.998;9.926;2023-05-10T11:36:34;14.08;88.68
66871;DHT22;53780;44.998;9.926;2023-05-10T11:39:38;14.10;88.98
66871;DHT22;53780;44.998;9.926;2023-05-10T11:42:42;14.12;88.77
66871;DHT22;53780;44.998;9.926;2023-05-10T11:45:45;14.26;88.64
66871;DHT22;53780;44.998;9.926;2023-05-10T11:48:51;14.33;88.12
66871;DHT22;53780;44.998;9.926;2023-05-10T11:52:07;14.38;88.69
66871;DHT22;53780;44.998;9.926;2023-05-10T11:55:12;14.29;87.28
66871;DHT22;53780;44.998;9.926;2023-05-10T11:58:15;14.37;88.31
66871;DHT22;53780;44.998;9.926;2023-05-10T12:01:22;14.37;87.57
66871;DHT22;53780;44.998;9.926;2023-05-10T12:04:27;14.49;87.56
66871;DHT22;53780;44.998;9.926;2023-05-10T12:07:32;14.57;87.15
66871;DHT22;53780;44.998;9.926;2023-05-10T12:10:36;14.57;87.46
66871;DHT22;53780;44.998;9.926;2023-05-10T12:13:43;14.65;87.82
66871;DHT22;53780;44.998;9.926;2023-05-10T12:16:50;14.71;87.58
66871;DHT22;53780;44.998;9.926;2023-05-10T12:19:59;14.67;87.05
66871;DHT22;53780;44.998;9.926;2023-05-10T12:23:03;14.58;87.32
66871;DHT22;53780;44.998;9.926;2023-05-10T12:26:10;14.54;87.15
66871;DHT22;53780;44.998;9.926;2023-05-10T12:29:16;14.64;87.33
66871;DHT22;53780;44.998;9.926;2023-05-10T12:32:20;14.60;86.73
66871;DHT22;53780;44.998;9.926;2023-05-10T12:35:24;14.57;86.00
66871;DHT22;53780;44.998;9.926;2023-05-10T12:38:31;14.57;86.69
66871;DHT22;53780;44.998;9.926;2023-05-10T12:41:35;14.69;87.44
66871;DHT22;53780;44.998;9.926;2023-05-10T12:44:40;14.65;87.25
66871;DHT22;53780;44.998;9.926;2023-05-10T12:47:44;14.58;85.94
66871;DHT22;53780;44.998;9.926;2023-05-10T12:50:48;14.60;87.87
66871;DHT22;53780;44.998;9.926;2023-05-10T12:53:52;14.67;88.42
66871;DHT22;53780;44.998;9.926;2023-05-10T12:56:56;14.85;87.98
66871;DHT22;53780;44.998;9.926;2023-05-10T12:59:59;14.98;88.02
66871;DHT22;53780;44.998;9.926;2023-05-10T13:03:06;15.00;86.03
66871;DHT22;53780;44.998;9.926;2023-05-10T13:06:10;15.13;86.29
66871;DHT22;53780;44.998;9.926;2023-05-10T13:09:14;15.32;85.71
66871;DHT22;53780;44.998;9.926;2023-05-10T13:12:18;15.44;85.33
66871;DHT22;53780;44.998;9.926;2023-05-10T13:15:22;15.47;83.48
66871;DHT22;53780;44.998;9.926;2023-05-10T13:18:26;15.43;85.22
66871;DHT22;53780;44.998;9.926;2023-05-10T13:21:30;15.37;83.59
66871;DHT22;53780;44.998;9.926;2023-05-10T13:24:34;15.60;84.41
66871;DHT22;53780;44.998;9.926;2023-05-10T13:27:39;15.57;82.35
66871;DHT22;53780;44.998;9.926;2023-05-10T13:30:43;15.74;81.75
66871;DHT22;53780;44.998;9.926;2023-05-10T13:33:46;15.99;82.09
66871;DHT22;53780;44.998;9.926;2023-05-10T13:36:50;15.98;81.52
66871;DHT22;53780;44.998;9.926;2023-05-10T13:39:53;16.01;80.17
66871;DHT22;53780;44.998;9.926;2023-05-10T13:42:57;16.08;79.81
66871;DHT22;53780;44.998;9.926;2023-05-10T13:46:01;16.08;79.22
66871;DHT22;53780;44.998;9.926;2023-05-10T13:49:06;16.15;79.61
66871;DHT22;53780;44.998;9.926;2023-05-10T13:52:10;16.20;79.60
66871;DHT22;53780;44.998;9.926;2023-05-10T13:55:14;16.20;78.39
66871;DHT22;53780;44.998;9.926;2023-05-10T13:58:18;16.04;77.67
66871;DHT22;53780;44.998;9.926;2023-05-10T14:01:22;16.17;79.30
66871;DHT22;53780;44.998;9.926;2023-05-10T14:04:26;16.23;77.87
66871;DHT22;53780;44.998;9.926;2023-05-10T14:07:30;16.33;79.65
66871;DHT22;53780;44.998;9.926;2023-05-10T14:10:34;16.26;77.93
66871;DHT22;53780;44.998;9.926;2023-05-10T14:13:38;16.29;78.70
66871;DHT22;53780;44.998;9.926;2023-05-10T14:16:43;16.32;76.81
66871;DHT22;53780;44.998;9.926;2023-05-10T14:19:47;16.20;76.80
66871;DHT22;53780;44.998;9.926;2023-05-10T14:22:50;16.22;77.92
66871;DHT22;53780;44.998;9.926;2023-05-10T14:25:54;16.10;78.45
66871;DHT22;53780;44.998;9.926;2023-05-10T14:28:58;16.06;77.28
66871;DHT22;53780;44.998;9.926;2023-05-10T14:32:02;15.96;78.07
66871;DHT22;53780;44.998;9.926;2023-05-10T14:35:06;15.79;78.49
66871;DHT22;53780;44.998;9.926;2023-05-10T14:38:11;15.72;78.62
66871;DHT22;53780;44.998;9.926;2023-05-10T14:41:16;15.68;79.13
66871;DHT22;53780;44.998;9.926;2023-05-10T14:44:21;15.53;79.29
66871;DHT22;53780;44.998;9.926;2023-05-10T14:47:25;15.60;79.89
66871;DHT22;53780;44.998;9.926;2023-05-10T14:50:29;15.55;79.25
66871;DHT22;53780;44.998;9.926;2023-05-10T14:53:33;15.53;78.72
66871;DHT22;53780;44.998;9.926;2023-05-10T14:56:37;15.44;78.44
66871;DHT22;53780;44.998;9.926;2023-05-10T14:59:41;15.46;79.29
66871;DHT22;53780;44.998;9.926;2023-05-10T15:02:45;15.54;79.39
66871;DHT22;53780;44.998;9.926;2023-05-10T15:05:48;15.60;78.78
66871;DHT22;53780;44.998;9.926;2023-05-10T15:08:52;15.67;78.61
66871;DHT22;53780;44.998;9.926;2023-05-10T15:11:56;15.72;78.43
66871;DHT22;53780;44.998;9.926;2023-05-10T15:14:59;15.75;78.84
66871;DHT22;53780;44.998;9.926;2023-05-10T15:18:03;15.72;78.21
66871;DHT22;53780;44.998;9.926;2023-05-10T15:21:09;15.95;78.11
66871;DHT22;53780;44.998;9.926;2023-05-10T15:24:13;16.09;77.90
66871;DHT22;53780;44.998;9.926;2023-05-10T15:27:18;16.05;76.57
66871;DHT22;53780;44.998;9.926;2023-05-10T15:30:21;16.16;77.40
66871;DHT22;53780;44.998;9.926;2023-05-10T15:33:25;16.17;77.33
66871;DHT22;53780;44.998;9.926;2023-05-10T15:36:31;16.26;76.63
66871;DHT22;53780;44.998;9.926;2023-05-10T15:39:35;16.43;75.80
66871;DHT22;53780;44.998;9.926;2023-05-10T15:42:39;16.46;76.81
66871;DHT22;53780;44.998;9.926;2023-05-10T15:45:43;16.37;76.44
66871;DHT22;53780;44.998;9.926;2023-05-10T15:48:47;16.47;76.43
66871;DHT22;53780;44.998;9.926;2023-05-10T15:51:51;16.42;76.11
66871;DHT22;53780;44.998;9.926;2023-05-10T15:54:55;16.53;76.15
66871;DHT22;53780;44.998;9.926;2023-05-10T15:57:58;16.46;76.28
66871;DHT22;53780;44.998;9.926;2023-05-10T16:01:02;16.40;76.80
66871;DHT22;53780;44.998;9.926;2023-05-10T16:04:06;16.47;76.95
66871;DHT22;53780;44.998;9.926;2023-05-10T16:07:11;16.57;77.29
66871;DHT22;53780;44.998;9.926;2023-05-10T16:10:14;16.63;75.93
66871;DHT22;53780;44.998;9.926;2023-05-10T16:13:18;16.63;76.08
66871;DHT22;53780;44.998;9.926;2023-05-10T16:16:23;16.46;76.01
66871;DHT22;53780;44.998;9.926;2023-05-10T16:19:27;16.44;76.38
66871;DHT22;53780;44.998;9.926;2023-05-10T16:22:30;16.53;75.89
66871;DHT22;53780;44.998;9.926;2023-05-10T16:25:35;16.50;76.17
66871;DHT22;53780;44.998;9.926;2023-05-10T16:28:39;16.49;76.41
66871;DHT22;53780;44.998;9.926;2023-05-10T16:31:44;16.33;75.57
66871;DHT22;53780;44.998;9.926;2023-05-10T16:34:49;16.29;76.48
66871;DHT22;53780;44.998;9.926;2023-05-10T16:37:53;16.17;76.66
66871;DHT22;53780;44.998;9.926;2023-05-10T16:40:57;16.25;76.76
66871;DHT22;53780;44.998;9.926;2023-05-10T16:44:01;16.22;76.60
66871;DHT22;53780;44.998;9.926;2023-05-10T16:47:06;16.13;77.23
66871;DHT22;53780;44.998;9.926;2023-05-10T16:50:10;16.12;77.70
66871;DHT22;53780;44.998;9.926;2023-05-10T16:53:14;16.12;77.30
66871;DHT22;53780;44.998;9.926;2023-05-10T16:56:18;16.08;77.79
66871;DHT22;53780;44.998;9.926;2023-05-10T16:59:24;16.01;78.30
66871;DHT22;53780;44.998;9.926;2023-05-10T17:02:28;15.94;78.28
66871;DHT22;53780;44.998;9.926;2023-05-10T17:05:32;15.91;78.55
66871;DHT22;53780;44.998;9.926;2023-05-10T17:08:35;15.94;78.43
66871;DHT22;53780;44.998;9.926;2023-05-10T17:11:39;15.74;78.51
66871;DHT22;53780;44.998;9.926;2023-05-10T17:14:44;15.77;78.47
66871;DHT22;53780;44.998;9.926;2023-05-10T17:17:48;15.77;78.32
66871;DHT22;53780;44.998;9.926;2023-05-10T17:20:52;15.84;78.73
66871;DHT22;53780;44.998;9.926;2023-05-10T17:23:56;15.84;78.96
66871;DHT22;53780;44.998;9.926;2023-05-10T17:26:59;15.84;79.20
66871;DHT22;53780;44.998;9.926;2023-05-10T17:30:06;15.91;78.63
66871;DHT22;53780;44.998;9.926;2023-05-10T17:33:10;15.92;78.48
66871;DHT22;53780;44.998;9.926;2023-05-10T17:36:15;15.92;78.65
66871;DHT22;53780;44.998;9.926;2023-05-10T17:39:19;15.89;79.11
66871;DHT22;53780;44.998;9.926;2023-05-10T17:42:22;15.82;79.84
66871;DHT22;53780;44.998;9.926;2023-05-10T17:45:26;15.64;80.23
66871;DHT22;53780;44.998;9.926;2023-05-10T17:48:30;15.55;81.13
66871;DHT22;53780;44.998;9.926;2023-05-10T17:51:34;15.57;80.88
66871;DHT22;53780;44.998;9.926;2023-05-10T17:54:37;15.61;80.97
66871;DHT22;53780;44.998;9.926;2023-05-10T17:57:41;15.57;80.12
66871;DHT22;53780;44.998;9.926;2023-05-10T18:00:46;15.54;80.54
66871;DHT22;53780;44.998;9.926;2023-05-10T18:03:50;15.54;80.85
66871;DHT22;53780;44.998;9.926;2023-05-10T18:06:55;15.58;81.01
66871;DHT22;53780;44.998;9.926;2023-05-10T18:10:03;15.53;81.43
66871;DHT22;53780;44.998;9.926;2023-05-10T18:13:07;15.46;81.10
66871;DHT22;53780;44.998;9.926;2023-05-10T18:16:11;15.44;80.99
66871;DHT22;53780;44.998;9.926;2023-05-10T18:19:16;15.47;80.88
66871;DHT22;53780;44.998;9.926;2023-05-10T18:22:20;15.50;80.79
66871;DHT22;53780;44.998;9.926;2023-05-10T18:25:24;15.46;80.80
66871;DHT22;53780;44.998;9.926;2023-05-10T18:28:28;15.36;81.16
66871;DHT22;53780;44.998;9.926;2023-05-10T18:31:31;15.33;81.08
66871;DHT22;53780;44.998;9.926;2023-05-10T18:34:35;15.30;81.22
66871;DHT22;53780;44.998;9.926;2023-05-10T18:37:39;15.29;81.30
66871;DHT22;53780;44.998;9.926;2023-05-10T18:40:43;15.27;81.37
66871;DHT22;53780;44.998;9.926;2023-05-10T18:43:47;15.24;81.19
66871;DHT22;53780;44.998;9.926;2023-05-10T18:46:51;15.19;81.22
66871;DHT22;53780;44.998;9.926;2023-05-10T18:49:56;15.10;81.44
66871;DHT22;53780;44.998;9.926;2023-05-10T18:53:00;15.06;81.63
66871;DHT22;53780;44.998;9.926;2023-05-10T18:56:04;15.00;81.61
66871;DHT22;53780;44.998;9.926;2023-05-10T18:59:10;14.91;82.09
66871;DHT22;53780;44.998;9.926;2023-05-10T19:02:14;14.88;82.31
66871;DHT22;53780;44.998;9.926;2023-05-10T19:05:18;14.84;82.56
66871;DHT22;53780;44.998;9.926;2023-05-10T19:08:22;14.76;82.78
66871;DHT22;53780;44.998;9.926;2023-05-10T19:11:27;14.75;82.89
66871;DHT22;53780;44.998;9.926;2023-05-10T19:14:34;14.71;82.87
66871;DHT22;53780;44.998;9.926;2023-05-10T19:17:39;14.75;83.10
66871;DHT22;53780;44.998;9.926;2023-05-10T19:20:42;14.71;82.89
66871;DHT22;53780;44.998;9.926;2023-05-10T19:23:46;14.72;82.87
66871;DHT22;53780;44.998;9.926;2023-05-10T19:26:50;14.74;83.05
66871;DHT22;53780;44.998;9.926;2023-05-10T19:29:54;14.72;82.89
66871;DHT22;53780;44.998;9.926;2023-05-10T19:32:59;14.74;82.66
66871;DHT22;53780;44.998;9.926;2023-05-10T19:36:05;14.67;82.40
66871;DHT22;53780;44.998;9.926;2023-05-10T19:39:10;14.64;82.56
66871;DHT22;53780;44.998;9.926;2023-05-10T19:42:15;14.65;82.59
66871;DHT22;53780;44.998;9.926;2023-05-10T19:45:19;14.63;82.54
66871;DHT22;53780;44.998;9.926;2023-05-10T19:48:24;14.61;82.60
66871;DHT22;53780;44.998;9.926;2023-05-10T19:51:28;14.60;82.58